createdAt,value
2017-12-13T00:01:44.559Z,3.45
2017-12-13T00:02:44.574Z,3.42
2017-12-13T00:04:37.487Z,3.40
2017-12-13T00:05:37.480Z,3.48
2017-12-13T00:07:30.385Z,3.48
2017-12-13T00:08:30.397Z,3.43
2017-12-13T00:10:23.302Z,3.50
2017-12-13T00:11:23.297Z,3.62
2017-12-13T00:13:16.196Z,3.51
2017-12-13T00:14:16.220Z,3.61
2017-12-13T00:16:09.124Z,3.65
2017-12-13T00:17:09.117Z,3.65
2017-12-13T00:19:02.031Z,3.60
2017-12-13T00:20:02.027Z,3.51
2017-12-13T00:21:54.923Z,3.70
2017-12-13T00:22:54.935Z,3.66
2017-12-13T00:24:47.849Z,3.58
2017-12-13T00:25:47.844Z,3.54
2017-12-13T00:27:40.738Z,3.54
2017-12-13T00:28:40.754Z,3.54
2017-12-13T00:30:33.663Z,3.48
2017-12-13T00:31:33.662Z,3.43
2017-12-13T00:33:26.558Z,3.45
2017-12-13T00:34:26.568Z,3.45
2017-12-13T00:36:19.479Z,3.36
2017-12-13T00:37:19.476Z,3.35
2017-12-13T00:39:12.392Z,3.35
2017-12-13T00:40:12.384Z,3.28
2017-12-13T00:42:05.279Z,3.28
2017-12-13T00:43:05.293Z,3.23
2017-12-13T00:44:58.203Z,3.28
2017-12-13T00:45:58.198Z,3.28
2017-12-13T00:47:51.090Z,3.31
2017-12-13T00:48:51.113Z,3.26
2017-12-13T00:50:44.018Z,3.31
2017-12-13T00:51:44.012Z,3.18
2017-12-13T00:53:36.906Z,3.14
2017-12-13T00:54:36.918Z,3.26
2017-12-13T00:56:29.827Z,3.14
2017-12-13T00:57:29.823Z,3.17
2017-12-13T00:59:22.736Z,3.10
2017-12-13T01:00:22.731Z,3.08
2017-12-13T01:02:15.624Z,2.99
2017-12-13T01:03:15.637Z,2.95
2017-12-13T01:05:08.544Z,2.93
2017-12-13T01:06:08.549Z,2.92
2017-12-13T01:08:01.433Z,2.93
2017-12-13T01:09:01.447Z,2.96
2017-12-13T01:10:54.360Z,2.87
2017-12-13T01:11:54.358Z,2.85
2017-12-13T01:13:47.251Z,2.85
2017-12-13T01:14:47.262Z,2.85
2017-12-13T01:16:40.176Z,2.85
2017-12-13T01:17:40.172Z,2.74
2017-12-13T01:19:33.124Z,2.78
2017-12-13T01:20:33.078Z,2.84
2017-12-13T01:22:25.967Z,2.85
2017-12-13T01:23:25.982Z,2.82
2017-12-13T01:25:18.898Z,2.75
2017-12-13T01:26:18.891Z,2.72
2017-12-13T01:28:11.784Z,2.79
2017-12-13T01:29:11.797Z,2.75
2017-12-13T01:31:04.702Z,2.69
2017-12-13T01:32:04.698Z,2.64
2017-12-13T01:33:57.594Z,2.71
2017-12-13T01:34:57.604Z,2.69
2017-12-13T01:36:50.511Z,2.64
2017-12-13T01:37:50.508Z,2.67
2017-12-13T01:39:43.420Z,2.71
2017-12-13T01:40:43.414Z,2.63
2017-12-13T01:42:36.308Z,2.67
2017-12-13T01:43:36.320Z,2.57
2017-12-13T01:45:29.230Z,2.56
2017-12-13T01:46:29.222Z,2.60
2017-12-13T01:48:22.161Z,2.56
2017-12-13T01:49:22.185Z,2.52
2017-12-13T01:51:15.040Z,2.57
2017-12-13T01:52:15.034Z,2.64
2017-12-13T01:54:07.924Z,2.57
2017-12-13T01:55:07.940Z,2.54
2017-12-13T01:57:00.849Z,2.52
2017-12-13T01:58:00.842Z,2.54
2017-12-13T01:59:53.755Z,2.46
2017-12-13T02:00:53.755Z,2.48
2017-12-13T02:02:46.644Z,2.45
2017-12-13T02:03:46.653Z,2.38
2017-12-13T02:05:39.565Z,2.45
2017-12-13T02:06:39.571Z,2.43
2017-12-13T02:08:32.451Z,2.49
2017-12-13T02:09:32.464Z,2.54
2017-12-13T02:11:25.372Z,2.49
2017-12-13T02:12:25.368Z,2.49
2017-12-13T02:14:18.260Z,2.52
2017-12-13T02:15:18.273Z,2.54
2017-12-13T02:17:11.183Z,2.49
2017-12-13T02:18:12.087Z,2.48
2017-12-13T02:20:04.112Z,2.49
2017-12-13T02:21:04.108Z,2.48
2017-12-13T02:22:57.029Z,2.49
2017-12-13T02:23:57.024Z,2.53
2017-12-13T02:25:49.947Z,2.48
2017-12-13T02:26:49.943Z,2.49
2017-12-13T02:28:42.847Z,2.49
2017-12-13T02:29:42.859Z,2.36
2017-12-13T02:31:35.771Z,2.42
2017-12-13T02:32:35.764Z,2.49
2017-12-13T02:34:28.656Z,2.52
2017-12-13T02:35:28.733Z,2.46
2017-12-13T02:37:21.580Z,2.49
2017-12-13T02:38:21.573Z,2.45
2017-12-13T02:40:14.484Z,2.49
2017-12-13T02:41:14.481Z,2.46
2017-12-13T02:43:07.484Z,2.48
2017-12-13T02:44:07.420Z,2.46
2017-12-13T02:46:00.333Z,2.49
2017-12-13T02:47:00.327Z,2.52
2017-12-13T02:48:53.348Z,2.52
2017-12-13T02:49:53.234Z,2.48
2017-12-13T02:51:46.141Z,2.54
2017-12-13T02:52:46.134Z,2.38
2017-12-13T02:54:39.027Z,2.52
2017-12-13T02:55:39.038Z,2.43
2017-12-13T02:57:31.949Z,2.41
2017-12-13T02:58:31.943Z,2.45
2017-12-13T03:00:24.850Z,2.39
2017-12-13T03:01:24.844Z,2.43
2017-12-13T03:03:17.738Z,2.34
2017-12-13T03:04:17.752Z,2.43
2017-12-13T03:06:10.665Z,2.41
2017-12-13T03:07:10.656Z,2.39
2017-12-13T03:09:03.544Z,2.42
2017-12-13T03:10:03.559Z,2.41
2017-12-13T03:11:56.470Z,2.35
2017-12-13T03:12:56.464Z,2.43
2017-12-13T03:14:49.356Z,2.36
2017-12-13T03:15:49.368Z,2.43
2017-12-13T03:17:42.276Z,2.39
2017-12-13T03:18:42.270Z,2.43
2017-12-13T03:20:35.181Z,2.36
2017-12-13T03:21:35.175Z,2.35
2017-12-13T03:23:28.081Z,2.36
2017-12-13T03:24:28.093Z,2.34
2017-12-13T03:26:21.001Z,2.27
2017-12-13T03:27:20.995Z,2.27
2017-12-13T03:29:13.888Z,2.36
2017-12-13T03:30:13.906Z,2.24
2017-12-13T03:32:06.811Z,2.28
2017-12-13T03:33:06.807Z,2.28
2017-12-13T03:34:59.701Z,2.30
2017-12-13T03:35:59.714Z,2.27
2017-12-13T03:37:52.627Z,2.28
2017-12-13T03:38:52.619Z,2.30
2017-12-13T03:40:45.540Z,2.25
2017-12-13T03:41:45.525Z,2.35
2017-12-13T03:43:38.414Z,2.27
2017-12-13T03:44:38.425Z,2.27
2017-12-13T03:46:31.334Z,2.36
2017-12-13T03:47:31.329Z,2.34
2017-12-13T03:49:24.219Z,2.27
2017-12-13T03:50:24.235Z,2.23
2017-12-13T03:52:17.151Z,2.28
2017-12-13T03:53:17.137Z,2.31
2017-12-13T03:55:10.026Z,2.41
2017-12-13T03:56:10.037Z,2.42
2017-12-13T03:58:02.945Z,2.42
2017-12-13T03:59:02.940Z,2.30
2017-12-13T04:00:55.854Z,2.38
2017-12-13T04:01:55.847Z,2.36
2017-12-13T04:03:48.740Z,2.42
2017-12-13T04:04:48.757Z,2.35
2017-12-13T04:06:42.653Z,2.42
2017-12-13T04:07:42.649Z,2.42
2017-12-13T04:09:35.541Z,2.52
2017-12-13T04:10:35.558Z,2.42
2017-12-13T04:12:28.465Z,2.45
2017-12-13T04:13:28.460Z,2.49
2017-12-13T04:15:21.353Z,2.39
2017-12-13T04:16:21.367Z,2.49
2017-12-13T04:18:14.277Z,2.53
2017-12-13T04:19:14.271Z,2.49
2017-12-13T04:21:07.182Z,2.56
2017-12-13T04:22:07.183Z,2.53
2017-12-13T04:24:00.073Z,2.46
2017-12-13T04:25:00.084Z,2.46
2017-12-13T04:26:52.999Z,2.53
2017-12-13T04:27:52.989Z,2.46
2017-12-13T04:29:45.883Z,2.48
2017-12-13T04:30:45.896Z,2.49
2017-12-13T04:32:38.804Z,2.49
2017-12-13T04:33:38.799Z,2.49
2017-12-13T04:35:31.917Z,2.48
2017-12-13T04:36:31.928Z,2.49
2017-12-13T04:38:24.839Z,2.49
2017-12-13T04:39:24.831Z,2.48
2017-12-13T04:41:17.742Z,2.48
2017-12-13T04:42:17.735Z,2.49
2017-12-13T04:44:10.626Z,2.41
2017-12-13T04:45:10.640Z,2.42
2017-12-13T04:47:03.549Z,2.48
2017-12-13T04:48:03.545Z,2.39
2017-12-13T04:49:56.434Z,2.49
2017-12-13T04:50:56.448Z,2.42
2017-12-13T04:52:49.367Z,2.49
2017-12-13T04:53:49.364Z,2.49
2017-12-13T04:55:42.252Z,2.52
2017-12-13T04:56:42.266Z,2.34
2017-12-13T04:58:35.180Z,2.46
2017-12-13T04:59:35.170Z,2.48
2017-12-13T05:01:28.081Z,2.46
2017-12-13T05:02:28.076Z,2.48
2017-12-13T05:04:20.971Z,2.53
2017-12-13T05:05:20.983Z,2.49
2017-12-13T05:07:13.892Z,2.56
2017-12-13T05:08:13.888Z,2.54
2017-12-13T05:10:06.774Z,2.54
2017-12-13T05:11:06.789Z,2.54
2017-12-13T05:12:59.699Z,2.54
2017-12-13T05:13:59.695Z,2.59
2017-12-13T05:15:52.584Z,2.59
2017-12-13T05:16:52.597Z,2.57
2017-12-13T05:18:45.508Z,2.63
2017-12-13T05:19:45.504Z,2.66
2017-12-13T05:21:38.413Z,2.69
2017-12-13T05:22:38.406Z,2.72
2017-12-13T05:24:31.299Z,2.74
2017-12-13T05:25:31.314Z,2.81
2017-12-13T05:27:24.222Z,2.84
2017-12-13T05:28:24.219Z,2.87
2017-12-13T05:30:17.108Z,2.90
2017-12-13T05:31:17.119Z,2.89
2017-12-13T05:33:10.035Z,2.99
2017-12-13T05:34:10.027Z,2.96
2017-12-13T05:36:02.918Z,2.97
2017-12-13T05:37:02.933Z,3.06
2017-12-13T05:38:55.845Z,3.05
2017-12-13T05:39:55.841Z,2.92
2017-12-13T05:41:48.751Z,2.95
2017-12-13T05:42:48.744Z,2.90
2017-12-13T05:44:41.637Z,2.78
2017-12-13T05:45:41.650Z,2.77
2017-12-13T05:47:34.569Z,2.74
2017-12-13T05:48:34.564Z,2.71
2017-12-13T05:50:27.454Z,2.79
2017-12-13T05:51:27.485Z,2.69
2017-12-13T05:53:20.383Z,2.66
2017-12-13T05:54:20.378Z,2.69
2017-12-13T05:56:13.272Z,2.71
2017-12-13T05:57:13.287Z,2.61
2017-12-13T05:59:06.193Z,2.54
2017-12-13T06:00:06.189Z,2.56
2017-12-13T06:01:59.098Z,2.52
2017-12-13T06:02:59.094Z,2.49
2017-12-13T06:04:51.982Z,2.49
2017-12-13T06:05:51.994Z,2.60
2017-12-13T06:07:44.906Z,2.52
2017-12-13T06:08:44.899Z,2.53
2017-12-13T06:10:37.833Z,2.45
2017-12-13T06:11:37.804Z,2.48
2017-12-13T06:13:30.714Z,2.48
2017-12-13T06:14:30.706Z,2.39
2017-12-13T06:16:23.598Z,2.53
2017-12-13T06:17:23.618Z,2.42
2017-12-13T06:19:16.523Z,2.39
2017-12-13T06:20:16.516Z,2.41
2017-12-13T06:22:09.436Z,2.41
2017-12-13T06:23:09.418Z,2.53
2017-12-13T06:25:02.311Z,2.42
2017-12-13T06:26:02.322Z,2.41
2017-12-13T06:27:55.232Z,2.42
2017-12-13T06:28:55.221Z,2.39
2017-12-13T06:30:48.116Z,2.53
2017-12-13T06:31:48.126Z,2.46
2017-12-13T06:33:41.037Z,2.45
2017-12-13T06:34:41.030Z,2.49
2017-12-13T06:36:33.924Z,2.42
2017-12-13T06:37:33.935Z,2.52
2017-12-13T06:39:26.844Z,2.45
2017-12-13T06:40:26.839Z,2.41
2017-12-13T06:42:19.749Z,2.34
2017-12-13T06:43:19.743Z,2.41
2017-12-13T06:45:12.639Z,2.39
2017-12-13T06:46:12.653Z,2.38
2017-12-13T06:48:05.561Z,2.43
2017-12-13T06:49:05.596Z,2.42
2017-12-13T06:50:58.444Z,2.41
2017-12-13T06:51:58.458Z,2.54
2017-12-13T06:53:51.368Z,2.48
2017-12-13T06:54:51.364Z,2.52
2017-12-13T06:56:44.260Z,2.48
2017-12-13T06:57:44.272Z,2.53
2017-12-13T06:59:37.181Z,2.49
2017-12-13T07:00:37.174Z,2.46
2017-12-13T07:02:30.080Z,2.52
2017-12-13T07:03:30.076Z,2.53
2017-12-13T07:05:22.967Z,2.57
2017-12-13T07:06:22.982Z,2.57
2017-12-13T07:08:15.893Z,2.64
2017-12-13T07:09:15.885Z,2.66
2017-12-13T07:11:08.778Z,2.71
2017-12-13T07:12:08.792Z,2.67
2017-12-13T07:14:01.703Z,2.71
2017-12-13T07:15:01.720Z,2.71
2017-12-13T07:16:54.601Z,2.71
2017-12-13T07:17:54.616Z,2.72
2017-12-13T07:19:47.522Z,2.82
2017-12-13T07:20:47.517Z,2.85
2017-12-13T07:22:40.430Z,2.87
2017-12-13T07:23:40.425Z,2.95
2017-12-13T07:25:33.316Z,2.93
2017-12-13T07:26:33.329Z,2.90
2017-12-13T07:28:26.238Z,3.08
2017-12-13T07:29:26.233Z,2.97
2017-12-13T07:31:19.122Z,3.17
2017-12-13T07:32:19.143Z,3.06
2017-12-13T07:34:12.049Z,3.05
2017-12-13T07:35:12.043Z,3.14
2017-12-13T07:37:04.934Z,3.14
2017-12-13T07:38:04.947Z,3.17
2017-12-13T07:39:57.856Z,3.15
2017-12-13T07:40:57.851Z,3.24
2017-12-13T07:42:50.806Z,3.26
2017-12-13T07:43:50.756Z,3.31
2017-12-13T07:45:43.811Z,3.29
2017-12-13T07:46:43.826Z,3.29
2017-12-13T07:48:36.888Z,3.39
2017-12-13T07:49:36.884Z,3.43
2017-12-13T07:51:29.922Z,3.43
2017-12-13T07:52:29.938Z,3.50
2017-12-13T07:54:22.849Z,3.57
2017-12-13T07:55:22.845Z,3.51
2017-12-13T07:57:15.734Z,3.51
2017-12-13T07:58:15.747Z,3.52
2017-12-13T08:00:08.809Z,3.68
2017-12-13T08:01:08.802Z,3.61
2017-12-13T08:03:01.713Z,3.69
2017-12-13T08:04:01.707Z,3.76
2017-12-13T08:05:54.606Z,3.79
2017-12-13T08:06:54.623Z,3.79
2017-12-13T08:08:47.671Z,3.88
2017-12-13T08:09:47.664Z,3.84
2017-12-13T08:11:40.556Z,3.87
2017-12-13T08:12:40.611Z,3.90
2017-12-13T08:14:33.678Z,3.96
2017-12-13T08:15:33.674Z,3.98
2017-12-13T08:17:26.572Z,4.09
2017-12-13T08:18:26.581Z,4.14
2017-12-13T08:20:19.691Z,4.12
2017-12-13T08:21:19.684Z,4.12
2017-12-13T08:23:12.597Z,4.14
2017-12-13T08:24:12.594Z,4.20
2017-12-13T08:26:05.499Z,4.20
2017-12-13T08:27:05.504Z,4.20
2017-12-13T08:28:58.418Z,4.30
2017-12-13T08:29:58.414Z,4.29
2017-12-13T08:31:51.305Z,4.24
2017-12-13T08:32:51.324Z,4.29
2017-12-13T08:34:44.232Z,4.45
2017-12-13T08:35:44.230Z,4.42
2017-12-13T08:37:37.146Z,4.54
2017-12-13T08:38:37.139Z,4.55
2017-12-13T08:40:30.052Z,4.55
2017-12-13T08:41:30.049Z,4.72
2017-12-13T08:43:22.966Z,4.75
2017-12-13T08:44:22.957Z,4.80
2017-12-13T08:46:15.854Z,4.85
2017-12-13T08:47:15.867Z,4.86
2017-12-13T08:49:08.784Z,4.92
2017-12-13T08:50:08.778Z,4.91
2017-12-13T08:52:01.680Z,4.94
2017-12-13T08:53:01.697Z,4.96
2017-12-13T08:54:54.621Z,5.00
2017-12-13T08:55:54.608Z,4.99
2017-12-13T08:57:47.538Z,5.02
2017-12-13T08:58:47.518Z,4.99
2017-12-13T09:00:40.413Z,5.09
2017-12-13T09:01:40.426Z,5.04
2017-12-13T09:03:33.342Z,5.06
2017-12-13T09:04:33.341Z,5.06
2017-12-13T09:06:26.234Z,4.97
2017-12-13T09:07:26.250Z,5.00
2017-12-13T09:09:19.166Z,4.91
2017-12-13T09:10:19.160Z,4.91
2017-12-13T09:12:12.059Z,4.99
2017-12-13T09:13:12.074Z,4.99
2017-12-13T09:15:04.987Z,5.06
2017-12-13T09:16:04.980Z,5.03
2017-12-13T09:17:57.903Z,5.12
2017-12-13T09:18:57.896Z,5.10
2017-12-13T09:20:50.793Z,5.04
2017-12-13T09:21:50.808Z,5.06
2017-12-13T09:23:43.732Z,5.12
2017-12-13T09:24:43.718Z,5.09
2017-12-13T09:26:36.614Z,5.10
2017-12-13T09:27:36.632Z,5.03
2017-12-13T09:29:29.543Z,5.07
2017-12-13T09:30:29.538Z,5.09
2017-12-13T09:32:22.436Z,5.03
2017-12-13T09:33:22.450Z,5.09
2017-12-13T09:35:15.361Z,5.10
2017-12-13T09:36:15.358Z,5.09
2017-12-13T09:38:08.280Z,5.12
2017-12-13T09:39:08.271Z,5.18
2017-12-13T09:41:01.166Z,5.15
2017-12-13T09:42:01.184Z,5.12
2017-12-13T09:43:54.097Z,5.17
2017-12-13T09:44:54.092Z,5.15
2017-12-13T09:46:46.991Z,5.17
2017-12-13T09:47:47.003Z,5.24
2017-12-13T09:49:39.919Z,5.21
2017-12-13T09:50:39.916Z,5.30
2017-12-13T09:52:32.813Z,5.25
2017-12-13T09:53:32.827Z,5.27
2017-12-13T09:55:25.741Z,5.33
2017-12-13T09:56:25.735Z,5.31
2017-12-13T09:58:18.807Z,5.24
2017-12-13T09:59:18.801Z,5.18
2017-12-13T10:01:11.836Z,5.18
2017-12-13T10:02:11.855Z,5.22
2017-12-13T10:04:04.768Z,5.17
2017-12-13T10:05:04.767Z,5.21
2017-12-13T10:06:57.662Z,5.22
2017-12-13T10:07:57.677Z,5.24
2017-12-13T10:09:50.594Z,5.25
2017-12-13T10:10:50.588Z,5.27
2017-12-13T10:12:43.485Z,5.35
2017-12-13T10:13:43.502Z,5.21
2017-12-13T10:15:36.414Z,5.25
2017-12-13T10:16:36.410Z,5.25
2017-12-13T10:18:29.304Z,5.20
2017-12-13T10:19:29.320Z,5.30
2017-12-13T10:21:22.234Z,5.33
2017-12-13T10:22:22.235Z,5.30
2017-12-13T10:24:15.147Z,5.30
2017-12-13T10:25:15.141Z,5.43
2017-12-13T10:27:08.044Z,5.24
2017-12-13T10:28:08.059Z,5.27
2017-12-13T10:30:01.000Z,5.33
2017-12-13T10:31:00.971Z,5.27
2017-12-13T10:32:53.871Z,5.31
2017-12-13T10:33:53.885Z,5.33
2017-12-13T10:35:46.800Z,5.40
2017-12-13T10:36:46.794Z,5.24
2017-12-13T10:38:39.690Z,5.42
2017-12-13T10:39:39.705Z,5.33
2017-12-13T10:41:32.641Z,5.31
2017-12-13T10:42:32.618Z,5.43
2017-12-13T10:44:25.531Z,5.39
2017-12-13T10:45:25.526Z,5.39
2017-12-13T10:47:18.442Z,5.45
2017-12-13T10:48:18.439Z,5.46
2017-12-13T10:50:11.352Z,5.40
2017-12-13T10:51:11.349Z,5.38
2017-12-13T10:53:04.247Z,5.24
2017-12-13T10:54:04.261Z,5.45
2017-12-13T10:55:57.182Z,5.42
2017-12-13T10:56:57.179Z,5.31
2017-12-13T10:58:50.076Z,5.40
2017-12-13T10:59:50.090Z,5.38
2017-12-13T11:01:43.013Z,5.43
2017-12-13T11:02:43.002Z,5.40
2017-12-13T11:04:35.914Z,5.45
2017-12-13T11:05:35.911Z,5.42
2017-12-13T11:07:28.813Z,5.43
2017-12-13T11:08:28.822Z,5.39
2017-12-13T11:10:21.940Z,5.42
2017-12-13T11:11:21.939Z,5.30
2017-12-13T11:13:14.866Z,5.27
2017-12-13T11:14:14.851Z,5.43
2017-12-13T11:16:07.952Z,5.39
2017-12-13T11:17:07.960Z,5.27
2017-12-13T11:19:01.839Z,5.22
2017-12-13T11:20:01.855Z,5.22
2017-12-13T11:21:54.770Z,5.25
2017-12-13T11:22:54.766Z,5.21
2017-12-13T11:24:47.682Z,5.25
2017-12-13T11:25:47.679Z,5.24
2017-12-13T11:27:40.770Z,5.21
2017-12-13T11:28:40.786Z,5.22
2017-12-13T11:30:33.713Z,5.24
2017-12-13T11:31:33.712Z,5.22
2017-12-13T11:33:26.788Z,5.27
2017-12-13T11:34:26.802Z,5.27
2017-12-13T11:36:19.859Z,5.38
2017-12-13T11:37:19.856Z,5.35
2017-12-13T11:39:12.750Z,5.30
2017-12-13T11:40:12.767Z,5.40
2017-12-13T11:42:05.682Z,5.38
2017-12-13T11:43:05.679Z,5.42
2017-12-13T11:44:58.598Z,5.28
2017-12-13T11:45:58.590Z,5.33
2017-12-13T11:47:51.490Z,5.28
2017-12-13T11:48:51.504Z,5.27
2017-12-13T11:50:44.418Z,5.35
2017-12-13T11:51:44.413Z,5.30
2017-12-13T11:53:37.462Z,5.33
2017-12-13T11:54:37.476Z,5.42
2017-12-13T11:56:30.536Z,5.39
2017-12-13T11:57:30.532Z,5.27
2017-12-13T11:59:23.428Z,5.31
2017-12-13T12:00:23.445Z,5.25
2017-12-13T12:02:16.545Z,5.28
2017-12-13T12:03:16.544Z,5.36
2017-12-13T12:05:09.457Z,5.39
2017-12-13T12:06:09.454Z,5.31
2017-12-13T12:08:02.356Z,5.33
2017-12-13T12:09:02.373Z,5.33
2017-12-13T12:10:55.286Z,5.33
2017-12-13T12:11:55.284Z,5.21
2017-12-13T12:13:48.343Z,5.35
2017-12-13T12:14:48.360Z,5.38
2017-12-13T12:16:41.425Z,5.35
2017-12-13T12:17:41.422Z,5.35
2017-12-13T12:19:34.316Z,5.28
2017-12-13T12:20:34.332Z,5.24
2017-12-13T12:22:27.248Z,5.38
2017-12-13T12:23:27.245Z,5.30
2017-12-13T12:25:20.384Z,5.35
2017-12-13T12:26:20.382Z,5.27
2017-12-13T12:28:13.277Z,5.30
2017-12-13T12:29:13.293Z,5.30
2017-12-13T12:31:06.211Z,5.31
2017-12-13T12:32:06.207Z,5.45
2017-12-13T12:33:59.109Z,5.40
2017-12-13T12:34:59.126Z,5.30
2017-12-13T12:36:52.120Z,5.33
2017-12-13T12:37:52.035Z,5.33
2017-12-13T12:39:44.930Z,5.33
2017-12-13T12:40:44.947Z,5.33
2017-12-13T12:42:37.859Z,5.18
2017-12-13T12:43:37.855Z,5.20
2017-12-13T12:45:30.783Z,5.17
2017-12-13T12:46:30.789Z,5.27
2017-12-13T12:48:23.680Z,5.22
2017-12-13T12:49:23.694Z,5.12
2017-12-13T12:51:16.608Z,5.12
2017-12-13T12:52:16.605Z,5.20
2017-12-13T12:54:09.514Z,5.24
2017-12-13T12:55:09.515Z,5.27
2017-12-13T12:57:02.434Z,5.27
2017-12-13T12:58:02.430Z,5.25
2017-12-13T12:59:55.327Z,5.24
2017-12-13T13:00:55.342Z,5.28
2017-12-13T13:02:48.256Z,5.39
2017-12-13T13:03:48.255Z,5.27
2017-12-13T13:05:41.171Z,5.36
2017-12-13T13:06:41.168Z,5.42
2017-12-13T13:08:34.064Z,5.38
2017-12-13T13:09:34.077Z,5.36
2017-12-13T13:11:26.992Z,5.43
2017-12-13T13:12:26.991Z,5.33
2017-12-13T13:14:19.886Z,5.27
2017-12-13T13:15:19.901Z,5.39
2017-12-13T13:17:12.814Z,5.35
2017-12-13T13:18:12.823Z,5.31
2017-12-13T13:20:05.706Z,5.18
2017-12-13T13:21:05.721Z,5.21
2017-12-13T13:22:58.637Z,5.15
2017-12-13T13:23:58.633Z,5.13
2017-12-13T13:25:51.550Z,5.10
2017-12-13T13:26:51.543Z,5.09
2017-12-13T13:28:44.444Z,5.07
2017-12-13T13:29:44.457Z,5.10
2017-12-13T13:31:37.370Z,5.07
2017-12-13T13:32:37.370Z,5.12
2017-12-13T13:34:30.293Z,5.09
2017-12-13T13:35:30.312Z,5.10
2017-12-13T13:37:23.216Z,5.13
2017-12-13T13:38:23.255Z,5.02
2017-12-13T13:40:16.089Z,5.07
2017-12-13T13:41:16.166Z,5.07
2017-12-13T13:43:09.220Z,5.09
2017-12-13T13:44:09.057Z,5.06
2017-12-13T13:46:02.020Z,5.07
2017-12-13T13:47:01.976Z,5.10
2017-12-13T13:48:54.894Z,5.07
2017-12-13T13:49:54.912Z,5.06
2017-12-13T13:51:47.903Z,5.06
2017-12-13T13:52:47.781Z,5.07
2017-12-13T13:54:40.709Z,5.09
2017-12-13T13:55:40.676Z,5.07
2017-12-13T13:57:33.665Z,5.09
2017-12-13T13:58:33.619Z,5.10
2017-12-13T14:00:26.538Z,5.04
2017-12-13T14:01:26.542Z,5.09
2017-12-13T14:03:19.499Z,5.09
2017-12-13T14:04:19.434Z,5.09
2017-12-13T14:06:12.322Z,5.09
2017-12-13T14:07:12.317Z,4.91
2017-12-13T14:09:05.231Z,5.07
2017-12-13T14:10:05.242Z,5.09
2017-12-13T14:11:58.160Z,5.10
2017-12-13T14:12:58.152Z,5.07
2017-12-13T14:14:51.072Z,5.07
2017-12-13T14:15:51.063Z,5.07
2017-12-13T14:17:43.988Z,5.15
2017-12-13T14:18:43.977Z,5.09
2017-12-13T14:20:36.876Z,5.15
2017-12-13T14:21:36.891Z,5.07
2017-12-13T14:23:29.810Z,5.07
2017-12-13T14:24:29.805Z,5.20
2017-12-13T14:26:22.720Z,5.10
2017-12-13T14:27:22.713Z,5.10
2017-12-13T14:29:15.611Z,5.20
2017-12-13T14:30:15.627Z,5.12
2017-12-13T14:32:08.547Z,5.12
2017-12-13T14:33:08.538Z,5.18
2017-12-13T14:35:01.438Z,5.24
2017-12-13T14:36:01.449Z,5.24
2017-12-13T14:37:54.366Z,5.21
2017-12-13T14:38:54.363Z,5.30
2017-12-13T14:40:47.264Z,5.27
2017-12-13T14:41:47.272Z,5.39
2017-12-13T14:43:40.186Z,5.38
2017-12-13T14:44:40.183Z,5.30
2017-12-13T14:46:33.099Z,5.28
2017-12-13T14:47:33.094Z,5.35
2017-12-13T14:49:25.990Z,5.25
2017-12-13T14:50:26.007Z,5.35
2017-12-13T14:52:18.919Z,5.31
2017-12-13T14:53:18.917Z,5.27
2017-12-13T14:55:11.809Z,5.33
2017-12-13T14:56:11.826Z,5.30
2017-12-13T14:58:04.742Z,5.36
2017-12-13T14:59:04.741Z,5.38
2017-12-13T15:00:57.675Z,5.20
2017-12-13T15:01:57.649Z,5.25
2017-12-13T15:03:50.544Z,5.24
2017-12-13T15:04:50.561Z,5.22
2017-12-13T15:06:43.667Z,5.22
2017-12-13T15:07:43.665Z,5.20
2017-12-13T15:09:36.559Z,5.21
2017-12-13T15:10:36.574Z,5.20
2017-12-13T15:12:29.494Z,5.20
2017-12-13T15:13:29.490Z,5.06
2017-12-13T15:15:22.384Z,5.12
2017-12-13T15:16:22.405Z,5.13
2017-12-13T15:18:15.444Z,5.12
2017-12-13T15:19:15.315Z,5.12
2017-12-13T15:21:08.226Z,5.10
2017-12-13T15:22:08.225Z,5.12
2017-12-13T15:24:01.124Z,5.13
2017-12-13T15:25:01.187Z,5.18
2017-12-13T15:26:54.046Z,5.04
2017-12-13T15:27:54.044Z,5.06
2017-12-13T15:29:47.082Z,5.10
2017-12-13T15:30:47.099Z,5.04
2017-12-13T15:32:40.008Z,5.10
2017-12-13T15:33:40.006Z,5.07
2017-12-13T15:35:32.914Z,5.04
2017-12-13T15:36:32.930Z,5.03
2017-12-13T15:38:25.848Z,5.00
2017-12-13T15:39:25.843Z,5.02
2017-12-13T15:41:18.770Z,5.00
2017-12-13T15:42:18.797Z,5.02
2017-12-13T15:44:11.652Z,5.06
2017-12-13T15:45:11.665Z,5.07
2017-12-13T15:47:04.579Z,5.02
2017-12-13T15:48:04.575Z,5.02
2017-12-13T15:49:57.470Z,4.94
2017-12-13T15:50:57.483Z,4.99
2017-12-13T15:52:50.396Z,5.02
2017-12-13T15:53:50.394Z,5.02
2017-12-13T15:55:43.287Z,5.04
2017-12-13T15:56:43.305Z,4.99
2017-12-13T15:58:36.214Z,5.03
2017-12-13T15:59:36.214Z,5.03
2017-12-13T16:01:29.108Z,5.03
2017-12-13T16:02:29.124Z,4.96
2017-12-13T16:04:22.041Z,5.04
2017-12-13T16:05:22.037Z,4.99
2017-12-13T16:07:14.949Z,5.03
2017-12-13T16:08:14.947Z,5.00
2017-12-13T16:10:07.844Z,4.96
2017-12-13T16:11:07.859Z,5.02
2017-12-13T16:13:00.831Z,4.97
2017-12-13T16:14:00.829Z,4.92
2017-12-13T16:15:54.275Z,4.96
2017-12-13T16:16:54.307Z,4.86
2017-12-13T16:18:47.208Z,4.97
2017-12-13T16:19:47.200Z,4.94
2017-12-13T16:21:40.094Z,4.94
2017-12-13T16:22:40.110Z,4.91
2017-12-13T16:24:33.026Z,5.00
2017-12-13T16:25:33.022Z,5.00
2017-12-13T16:27:25.937Z,4.99
2017-12-13T16:28:25.931Z,4.99
2017-12-13T16:30:18.826Z,5.02
2017-12-13T16:31:18.905Z,4.99
2017-12-13T16:33:11.760Z,5.06
2017-12-13T16:34:11.751Z,5.07
2017-12-13T16:36:04.658Z,4.99
2017-12-13T16:37:04.828Z,5.09
2017-12-13T16:38:57.580Z,5.07
2017-12-13T16:39:57.578Z,5.10
2017-12-13T16:41:50.649Z,5.06
2017-12-13T16:42:50.647Z,5.04
2017-12-13T16:44:43.553Z,5.03
2017-12-13T16:45:43.560Z,5.06
2017-12-13T16:47:36.576Z,5.07
2017-12-13T16:48:36.499Z,5.06
2017-12-13T16:50:29.365Z,5.04
2017-12-13T16:51:29.380Z,5.09
2017-12-13T16:53:23.483Z,5.02
2017-12-13T16:54:23.493Z,5.06
2017-12-13T16:56:17.554Z,5.09
2017-12-13T16:57:17.564Z,5.03
2017-12-13T16:59:10.476Z,5.17
2017-12-13T17:00:10.485Z,5.12
2017-12-13T17:02:03.393Z,5.12
2017-12-13T17:03:03.395Z,5.25
2017-12-13T17:04:56.287Z,5.25
2017-12-13T17:05:56.300Z,5.28
2017-12-13T17:07:49.262Z,5.22
2017-12-13T17:08:49.211Z,5.20
2017-12-13T17:10:42.133Z,5.20
2017-12-13T17:11:42.122Z,5.18
2017-12-13T17:13:35.035Z,5.20
2017-12-13T17:14:35.031Z,5.18
2017-12-13T17:16:27.931Z,5.15
2017-12-13T17:17:27.944Z,5.27
2017-12-13T17:19:20.861Z,5.20
2017-12-13T17:20:20.863Z,5.22
2017-12-13T17:22:13.810Z,5.22
2017-12-13T17:23:13.792Z,5.24
2017-12-13T17:25:06.687Z,5.20
2017-12-13T17:26:06.706Z,5.20
2017-12-13T17:27:59.631Z,5.33
2017-12-13T17:28:59.625Z,5.22
2017-12-13T17:30:52.526Z,5.28
2017-12-13T17:31:52.560Z,5.20
2017-12-13T17:33:45.501Z,5.36
2017-12-13T17:34:45.487Z,5.30
2017-12-13T17:36:38.349Z,5.35
2017-12-13T17:37:38.366Z,5.39
2017-12-13T17:39:31.282Z,5.28
2017-12-13T17:40:31.278Z,5.30
2017-12-13T17:42:24.193Z,5.22
2017-12-13T17:43:24.184Z,5.27
2017-12-13T17:45:17.083Z,5.27
2017-12-13T17:46:17.101Z,5.35
2017-12-13T17:48:10.013Z,5.31
2017-12-13T17:49:10.011Z,5.38
2017-12-13T17:51:02.906Z,5.28
2017-12-13T17:52:02.926Z,5.35
2017-12-13T17:53:55.840Z,5.38
2017-12-13T17:54:55.839Z,5.30
2017-12-13T17:56:48.736Z,5.28
2017-12-13T17:57:48.752Z,5.31
2017-12-13T17:59:41.664Z,5.35
2017-12-13T18:00:41.662Z,5.35
2017-12-13T18:02:34.598Z,5.38
2017-12-13T18:03:34.596Z,5.33
2017-12-13T18:05:27.487Z,5.38
2017-12-13T18:06:27.507Z,5.39
2017-12-13T18:08:20.418Z,5.45
2017-12-13T18:09:20.414Z,5.53
2017-12-13T18:11:13.582Z,5.53
2017-12-13T18:12:13.552Z,5.56
2017-12-13T18:14:06.729Z,5.49
2017-12-13T18:15:06.615Z,5.42
2017-12-13T18:16:59.655Z,5.45
2017-12-13T18:17:59.677Z,5.36
2017-12-13T18:19:52.742Z,5.43
2017-12-13T18:20:52.756Z,5.46
2017-12-13T18:22:45.640Z,5.48
2017-12-13T18:23:45.638Z,5.45
2017-12-13T18:25:38.580Z,5.39
2017-12-13T18:26:38.595Z,5.49
2017-12-13T18:28:31.464Z,5.53
2017-12-13T18:29:31.458Z,5.49
2017-12-13T18:31:24.525Z,5.60
2017-12-13T18:32:24.575Z,5.60
2017-12-13T18:34:17.612Z,5.67
2017-12-13T18:35:17.610Z,5.65
2017-12-13T18:37:10.764Z,5.56
2017-12-13T18:38:10.833Z,5.65
2017-12-13T18:40:03.926Z,5.64
2017-12-13T18:41:03.925Z,5.65
2017-12-13T18:42:56.837Z,5.60
2017-12-13T18:43:56.847Z,5.64
2017-12-13T18:45:49.912Z,5.61
2017-12-13T18:46:49.960Z,5.56
2017-12-13T18:48:42.984Z,5.53
2017-12-13T18:49:42.984Z,5.56
2017-12-13T18:51:35.879Z,5.54
2017-12-13T18:52:35.896Z,5.46
2017-12-13T18:54:28.997Z,5.54
2017-12-13T18:55:29.004Z,5.49
2017-12-13T18:57:22.098Z,5.49
2017-12-13T18:58:22.050Z,5.57
2017-12-13T19:00:14.966Z,5.58
2017-12-13T19:01:14.963Z,5.57
2017-12-13T19:03:08.097Z,5.51
2017-12-13T19:04:08.063Z,5.57
2017-12-13T19:06:01.097Z,5.65
2017-12-13T19:07:01.114Z,5.63
2017-12-13T19:08:55.202Z,5.65
2017-12-13T19:09:55.201Z,5.65
2017-12-13T19:11:48.590Z,5.68